sensor_id;sensor_type;location;lat;lon;timestamp;P1;durP1;ratioP1;P2;durP2;ratioP2
31306;SDS011;17935;51.120;13.132;2024-02-16T07:30:10;9.93;;;5.75;;
31306;SDS011;17935;51.120;13.132;2024-02-16T07:32:59;9.00;;;5.55;;
31306;SDS011;17935;51.120;13.132;2024-02-16T07:35:34;6.68;;;4.78;;
31306;SDS011;17935;51.120;13.132;2024-02-16T07:38:05;6.22;;;5.18;;
31306;SDS011;17935;51.120;13.132;2024-02-16T07:43:18;9.75;;;5.28;;
31306;SDS011;17935;51.120;13.132;2024-02-16T07:45:53;7.30;;;4.55;;
31306;SDS011;17935;51.120;13.132;2024-02-16T07:55:55;9.02;;;5.30;;
31306;SDS011;17935;51.120;13.132;2024-02-16T07:58:28;12.40;;;6.10;;
31306;SDS011;17935;51.120;13.132;2024-02-16T08:00:54;10.38;;;6.40;;
31306;SDS011;17935;51.120;13.132;2024-02-16T08:03:28;7.22;;;5.05;;
31306;SDS011;17935;51.120;13.132;2024-02-16T08:05:58;10.45;;;5.18;;
31306;SDS011;17935;51.120;13.132;2024-02-16T08:08:30;6.95;;;4.85;;
31306;SDS011;17935;51.120;13.132;2024-02-16T08:11:03;10.60;;;5.40;;
31306;SDS011;17935;51.120;13.132;2024-02-16T08:13:29;7.43;;;5.45;;
31306;SDS011;17935;51.120;13.132;2024-02-16T08:15:54;9.23;;;5.50;;
31306;SDS011;17935;51.120;13.132;2024-02-16T08:18:21;8.38;;;5.07;;
31306;SDS011;17935;51.120;13.132;2024-02-16T08:20:53;6.25;;;4.72;;
31306;SDS011;17935;51.120;13.132;2024-02-16T08:23:19;7.95;;;5.03;;
31306;SDS011;17935;51.120;13.132;2024-02-16T08:25:55;6.82;;;4.30;;
31306;SDS011;17935;51.120;13.132;2024-02-16T08:28:25;7.13;;;4.07;;
31306;SDS011;17935;51.120;13.132;2024-02-16T08:31:02;5.88;;;4.30;;
31306;SDS011;17935;51.120;13.132;2024-02-16T08:33:28;8.75;;;4.35;;
31306;SDS011;17935;51.120;13.132;2024-02-16T08:35:57;6.47;;;3.78;;
31306;SDS011;17935;51.120;13.132;2024-02-16T08:38:25;6.78;;;3.85;;
31306;SDS011;17935;51.120;13.132;2024-02-16T08:40:51;7.60;;;4.22;;
31306;SDS011;17935;51.120;13.132;2024-02-16T08:43:23;7.38;;;4.55;;
31306;SDS011;17935;51.120;13.132;2024-02-16T08:45:51;7.57;;;3.85;;
31306;SDS011;17935;51.120;13.132;2024-02-16T08:48:19;6.03;;;4.32;;
31306;SDS011;17935;51.120;13.132;2024-02-16T08:50:44;5.78;;;3.75;;
31306;SDS011;17935;51.120;13.132;2024-02-16T08:53:10;4.03;;;3.30;;
31306;SDS011;17935;51.120;13.132;2024-02-16T08:55:36;5.80;;;3.53;;
31306;SDS011;17935;51.120;13.132;2024-02-16T08:58:08;15.88;;;4.22;;
31306;SDS011;17935;51.120;13.132;2024-02-16T09:00:40;4.60;;;3.15;;
31306;SDS011;17935;51.120;13.132;2024-02-16T09:03:06;7.43;;;3.60;;
31306;SDS011;17935;51.120;13.132;2024-02-16T09:05:39;4.40;;;3.20;;
31306;SDS011;17935;51.120;13.132;2024-02-16T09:08:05;4.32;;;2.90;;
31306;SDS011;17935;51.120;13.132;2024-02-16T09:10:34;5.45;;;3.00;;
31306;SDS011;17935;51.120;13.132;2024-02-16T09:13:03;5.57;;;3.13;;
31306;SDS011;17935;51.120;13.132;2024-02-16T09:15:34;6.70;;;3.47;;
31306;SDS011;17935;51.120;13.132;2024-02-16T09:18:01;7.22;;;3.35;;
31306;SDS011;17935;51.120;13.132;2024-02-16T09:20:30;6.70;;;3.65;;
31306;SDS011;17935;51.120;13.132;2024-02-16T09:23:07;6.85;;;3.13;;
31306;SDS011;17935;51.120;13.132;2024-02-16T09:25:33;4.35;;;3.13;;
31306;SDS011;17935;51.120;13.132;2024-02-16T09:28:05;3.85;;;2.88;;
31306;SDS011;17935;51.120;13.132;2024-02-16T09:30:36;4.63;;;2.97;;
31306;SDS011;17935;51.120;13.132;2024-02-16T09:33:02;5.70;;;3.17;;
31306;SDS011;17935;51.120;13.132;2024-02-16T09:38:12;7.03;;;3.35;;
31306;SDS011;17935;51.120;13.132;2024-02-16T09:40:41;5.97;;;3.60;;
31306;SDS011;17935;51.120;13.132;2024-02-16T09:46:13;6.07;;;2.65;;
31306;SDS011;17935;51.120;13.132;2024-02-16T09:48:41;3.92;;;2.40;;
31306;SDS011;17935;51.120;13.132;2024-02-16T09:51:13;6.18;;;2.60;;
31306;SDS011;17935;51.120;13.132;2024-02-16T09:53:40;5.28;;;3.33;;
31306;SDS011;17935;51.120;13.132;2024-02-16T09:56:05;4.47;;;3.05;;
31306;SDS011;17935;51.120;13.132;2024-02-16T09:58:33;5.18;;;3.05;;
31306;SDS011;17935;51.120;13.132;2024-02-16T10:01:03;4.28;;;2.90;;
31306;SDS011;17935;51.120;13.132;2024-02-16T10:03:29;3.90;;;3.17;;
31306;SDS011;17935;51.120;13.132;2024-02-16T10:06:06;4.55;;;2.85;;
31306;SDS011;17935;51.120;13.132;2024-02-16T10:08:33;4.50;;;2.35;;
31306;SDS011;17935;51.120;13.132;2024-02-16T10:11:03;4.32;;;2.83;;
31306;SDS011;17935;51.120;13.132;2024-02-16T10:13:34;3.10;;;2.33;;
31306;SDS011;17935;51.120;13.132;2024-02-16T10:19:12;2.97;;;2.17;;
31306;SDS011;17935;51.120;13.132;2024-02-16T10:21:42;3.10;;;2.33;;
31306;SDS011;17935;51.120;13.132;2024-02-16T10:24:09;2.85;;;2.53;;
31306;SDS011;17935;51.120;13.132;2024-02-16T10:26:48;5.35;;;3.15;;
31306;SDS011;17935;51.120;13.132;2024-02-16T10:29:17;4.13;;;2.90;;
31306;SDS011;17935;51.120;13.132;2024-02-16T10:31:49;4.18;;;2.78;;
31306;SDS011;17935;51.120;13.132;2024-02-16T10:34:18;5.63;;;2.88;;
31306;SDS011;17935;51.120;13.132;2024-02-16T10:36:47;3.42;;;2.60;;
31306;SDS011;17935;51.120;13.132;2024-02-16T10:39:14;3.72;;;2.30;;
31306;SDS011;17935;51.120;13.132;2024-02-16T10:41:48;6.93;;;2.63;;
31306;SDS011;17935;51.120;13.132;2024-02-16T11:45:43;4.65;;;3.13;;
31306;SDS011;17935;51.120;13.132;2024-02-16T11:57:34;5.00;;;3.72;;
31306;SDS011;17935;51.120;13.132;2024-02-16T12:11:41;5.55;;;2.97;;
31306;SDS011;17935;51.120;13.132;2024-02-16T12:14:10;3.63;;;2.72;;
31306;SDS011;17935;51.120;13.132;2024-02-16T12:16:39;2.92;;;2.30;;
31306;SDS011;17935;51.120;13.132;2024-02-16T12:19:27;3.70;;;2.42;;
31306;SDS011;17935;51.120;13.132;2024-02-16T12:21:57;4.53;;;3.08;;
31306;SDS011;17935;51.120;13.132;2024-02-16T12:24:24;3.33;;;2.75;;
31306;SDS011;17935;51.120;13.132;2024-02-16T12:26:52;3.92;;;3.15;;
31306;SDS011;17935;51.120;13.132;2024-02-16T12:29:21;6.05;;;3.53;;
31306;SDS011;17935;51.120;13.132;2024-02-16T12:31:47;3.55;;;2.95;;
31306;SDS011;17935;51.120;13.132;2024-02-16T12:34:20;5.40;;;3.22;;
31306;SDS011;17935;51.120;13.132;2024-02-16T12:36:48;6.22;;;2.65;;
31306;SDS011;17935;51.120;13.132;2024-02-16T12:39:16;2.78;;;2.42;;
31306;SDS011;17935;51.120;13.132;2024-02-16T12:41:47;4.72;;;2.60;;
31306;SDS011;17935;51.120;13.132;2024-02-16T12:44:16;3.78;;;2.20;;
31306;SDS011;17935;51.120;13.132;2024-02-16T12:46:42;4.13;;;2.05;;
31306;SDS011;17935;51.120;13.132;2024-02-16T12:49:09;4.32;;;2.53;;
31306;SDS011;17935;51.120;13.132;2024-02-16T12:51:37;3.75;;;2.40;;
31306;SDS011;17935;51.120;13.132;2024-02-16T12:54:03;3.55;;;2.33;;
31306;SDS011;17935;51.120;13.132;2024-02-16T12:56:32;3.55;;;2.15;;
31306;SDS011;17935;51.120;13.132;2024-02-16T12:58:58;4.57;;;2.58;;
31306;SDS011;17935;51.120;13.132;2024-02-16T13:01:27;6.43;;;2.70;;
31306;SDS011;17935;51.120;13.132;2024-02-16T13:03:58;6.07;;;2.38;;
31306;SDS011;17935;51.120;13.132;2024-02-16T13:06:27;2.75;;;2.40;;
31306;SDS011;17935;51.120;13.132;2024-02-16T13:08:53;3.97;;;2.28;;
31306;SDS011;17935;51.120;13.132;2024-02-16T13:11:22;3.83;;;2.60;;
31306;SDS011;17935;51.120;13.132;2024-02-16T13:13:55;2.25;;;1.90;;
31306;SDS011;17935;51.120;13.132;2024-02-16T13:16:48;5.00;;;2.38;;
31306;SDS011;17935;51.120;13.132;2024-02-16T13:19:25;3.85;;;2.40;;
31306;SDS011;17935;51.120;13.132;2024-02-16T13:22:10;4.28;;;2.28;;
31306;SDS011;17935;51.120;13.132;2024-02-16T13:24:44;4.00;;;2.53;;
31306;SDS011;17935;51.120;13.132;2024-02-16T13:27:20;3.10;;;2.20;;
31306;SDS011;17935;51.120;13.132;2024-02-16T13:29:46;4.10;;;2.10;;
31306;SDS011;17935;51.120;13.132;2024-02-16T13:32:39;5.78;;;3.00;;
31306;SDS011;17935;51.120;13.132;2024-02-16T13:35:18;3.45;;;2.38;;
31306;SDS011;17935;51.120;13.132;2024-02-16T13:37:50;3.47;;;2.28;;
31306;SDS011;17935;51.120;13.132;2024-02-16T13:40:24;2.60;;;2.40;;
31306;SDS011;17935;51.120;13.132;2024-02-16T13:42:53;4.35;;;2.75;;
31306;SDS011;17935;51.120;13.132;2024-02-16T13:48:21;3.05;;;2.20;;
31306;SDS011;17935;51.120;13.132;2024-02-16T13:50:56;4.57;;;2.70;;
31306;SDS011;17935;51.120;13.132;2024-02-16T13:53:25;4.25;;;2.65;;
31306;SDS011;17935;51.120;13.132;2024-02-16T13:55:51;5.00;;;2.70;;
31306;SDS011;17935;51.120;13.132;2024-02-16T13:58:22;4.00;;;2.92;;
31306;SDS011;17935;51.120;13.132;2024-02-16T14:00:59;4.70;;;2.65;;
31306;SDS011;17935;51.120;13.132;2024-02-16T14:03:32;3.88;;;2.53;;
31306;SDS011;17935;51.120;13.132;2024-02-16T14:06:02;4.32;;;2.72;;
31306;SDS011;17935;51.120;13.132;2024-02-16T14:08:37;4.50;;;3.05;;
31306;SDS011;17935;51.120;13.132;2024-02-16T14:11:12;3.60;;;2.45;;
31306;SDS011;17935;51.120;13.132;2024-02-16T14:13:41;4.10;;;2.80;;
31306;SDS011;17935;51.120;13.132;2024-02-16T14:16:35;4.50;;;3.25;;
31306;SDS011;17935;51.120;13.132;2024-02-16T14:19:21;4.88;;;3.05;;
31306;SDS011;17935;51.120;13.132;2024-02-16T14:21:55;4.68;;;3.00;;
31306;SDS011;17935;51.120;13.132;2024-02-16T14:24:21;6.38;;;3.22;;
31306;SDS011;17935;51.120;13.132;2024-02-16T14:27:07;4.18;;;2.65;;
31306;SDS011;17935;51.120;13.132;2024-02-16T14:29:58;3.97;;;2.80;;
31306;SDS011;17935;51.120;13.132;2024-02-16T14:32:29;4.60;;;3.15;;
31306;SDS011;17935;51.120;13.132;2024-02-16T14:35:11;6.35;;;2.97;;
31306;SDS011;17935;51.120;13.132;2024-02-16T14:40:47;7.90;;;3.15;;
31306;SDS011;17935;51.120;13.132;2024-02-16T14:43:22;5.55;;;3.25;;
31306;SDS011;17935;51.120;13.132;2024-02-16T14:45:51;5.88;;;3.13;;
31306;SDS011;17935;51.120;13.132;2024-02-16T14:48:39;5.15;;;3.17;;
31306;SDS011;17935;51.120;13.132;2024-02-16T14:51:13;4.30;;;2.88;;
31306;SDS011;17935;51.120;13.132;2024-02-16T14:54:08;7.10;;;3.67;;
31306;SDS011;17935;51.120;13.132;2024-02-16T14:56:37;6.63;;;3.78;;
31306;SDS011;17935;51.120;13.132;2024-02-16T14:59:03;6.97;;;4.10;;
31306;SDS011;17935;51.120;13.132;2024-02-16T15:01:37;7.25;;;3.58;;
31306;SDS011;17935;51.120;13.132;2024-02-16T15:04:08;5.68;;;4.10;;
31306;SDS011;17935;51.120;13.132;2024-02-16T15:06:37;6.32;;;3.55;;
31306;SDS011;17935;51.120;13.132;2024-02-16T15:09:10;5.93;;;3.55;;
31306;SDS011;17935;51.120;13.132;2024-02-16T15:12:11;4.80;;;3.05;;
31306;SDS011;17935;51.120;13.132;2024-02-16T15:17:25;5.55;;;4.03;;
31306;SDS011;17935;51.120;13.132;2024-02-16T15:20:00;6.22;;;3.63;;
31306;SDS011;17935;51.120;13.132;2024-02-16T15:22:46;4.88;;;3.83;;
31306;SDS011;17935;51.120;13.132;2024-02-16T15:25:23;5.00;;;3.72;;
31306;SDS011;17935;51.120;13.132;2024-02-16T15:28:04;7.53;;;3.55;;
31306;SDS011;17935;51.120;13.132;2024-02-16T15:30:30;10.52;;;3.95;;
31306;SDS011;17935;51.120;13.132;2024-02-16T15:33:22;4.32;;;3.13;;
31306;SDS011;17935;51.120;13.132;2024-02-16T15:36:09;3.70;;;2.70;;
31306;SDS011;17935;51.120;13.132;2024-02-16T15:38:45;4.07;;;2.70;;
31306;SDS011;17935;51.120;13.132;2024-02-16T15:41:15;3.97;;;2.80;;
31306;SDS011;17935;51.120;13.132;2024-02-16T15:43:44;17.65;;;11.70;;
31306;SDS011;17935;51.120;13.132;2024-02-16T15:46:20;11.73;;;8.80;;
31306;SDS011;17935;51.120;13.132;2024-02-16T15:49:00;10.10;;;8.70;;
31306;SDS011;17935;51.120;13.132;2024-02-16T15:51:35;8.75;;;5.97;;
31306;SDS011;17935;51.120;13.132;2024-02-16T15:54:18;8.68;;;5.35;;
31306;SDS011;17935;51.120;13.132;2024-02-16T15:57:07;9.88;;;5.60;;
31306;SDS011;17935;51.120;13.132;2024-02-16T15:59:35;5.70;;;4.00;;
31306;SDS011;17935;51.120;13.132;2024-02-16T16:02:01;7.38;;;5.35;;
31306;SDS011;17935;51.120;13.132;2024-02-16T16:04:37;18.50;;;11.30;;
31306;SDS011;17935;51.120;13.132;2024-02-16T16:07:06;24.67;;;13.50;;
31306;SDS011;17935;51.120;13.132;2024-02-16T16:09:32;14.13;;;8.13;;
31306;SDS011;17935;51.120;13.132;2024-02-16T16:12:00;7.30;;;5.30;;
31306;SDS011;17935;51.120;13.132;2024-02-16T16:14:31;4.65;;;3.25;;
31306;SDS011;17935;51.120;13.132;2024-02-16T16:17:00;5.05;;;3.72;;
31306;SDS011;17935;51.120;13.132;2024-02-16T16:22:17;8.32;;;4.60;;
31306;SDS011;17935;51.120;13.132;2024-02-16T16:25:16;7.45;;;4.32;;
31306;SDS011;17935;51.120;13.132;2024-02-16T16:27:53;7.57;;;3.83;;
31306;SDS011;17935;51.120;13.132;2024-02-16T16:30:22;5.93;;;3.85;;
31306;SDS011;17935;51.120;13.132;2024-02-16T16:33:01;5.65;;;4.10;;
31306;SDS011;17935;51.120;13.132;2024-02-16T16:35:30;7.70;;;3.83;;
31306;SDS011;17935;51.120;13.132;2024-02-16T16:38:04;7.50;;;4.80;;
31306;SDS011;17935;51.120;13.132;2024-02-16T16:40:34;5.88;;;2.75;;
31306;SDS011;17935;51.120;13.132;2024-02-16T16:43:20;3.75;;;2.60;;
31306;SDS011;17935;51.120;13.132;2024-02-16T16:45:46;4.03;;;2.95;;
31306;SDS011;17935;51.120;13.132;2024-02-16T16:48:25;6.95;;;3.50;;
31306;SDS011;17935;51.120;13.132;2024-02-16T16:50:57;8.45;;;3.47;;
31306;SDS011;17935;51.120;13.132;2024-02-16T16:53:27;5.85;;;2.72;;
31306;SDS011;17935;51.120;13.132;2024-02-16T16:56:07;5.75;;;3.03;;
31306;SDS011;17935;51.120;13.132;2024-02-16T16:58:44;4.38;;;3.15;;
31306;SDS011;17935;51.120;13.132;2024-02-16T17:01:28;5.10;;;3.33;;
31306;SDS011;17935;51.120;13.132;2024-02-16T17:03:57;5.43;;;3.65;;
31306;SDS011;17935;51.120;13.132;2024-02-16T17:09:29;13.23;;;7.28;;
31306;SDS011;17935;51.120;13.132;2024-02-16T17:12:29;7.70;;;4.97;;
31306;SDS011;17935;51.120;13.132;2024-02-16T17:15:03;5.80;;;3.58;;
31306;SDS011;17935;51.120;13.132;2024-02-16T17:17:37;10.52;;;4.63;;
31306;SDS011;17935;51.120;13.132;2024-02-16T17:20:18;16.67;;;9.40;;
31306;SDS011;17935;51.120;13.132;2024-02-16T17:22:58;8.43;;;4.80;;
31306;SDS011;17935;51.120;13.132;2024-02-16T17:25:53;5.82;;;4.30;;
31306;SDS011;17935;51.120;13.132;2024-02-16T17:28:24;9.13;;;4.68;;
31306;SDS011;17935;51.120;13.132;2024-02-16T17:30:53;21.15;;;11.43;;
31306;SDS011;17935;51.120;13.132;2024-02-16T17:33:31;11.77;;;5.72;;
31306;SDS011;17935;51.120;13.132;2024-02-16T17:36:06;13.80;;;4.90;;
31306;SDS011;17935;51.120;13.132;2024-02-16T17:38:34;6.97;;;4.20;;
31306;SDS011;17935;51.120;13.132;2024-02-16T17:41:26;8.38;;;4.30;;
31306;SDS011;17935;51.120;13.132;2024-02-16T17:44:03;13.73;;;4.93;;
31306;SDS011;17935;51.120;13.132;2024-02-16T17:46:35;7.97;;;5.53;;
31306;SDS011;17935;51.120;13.132;2024-02-16T17:49:12;11.40;;;4.38;;
31306;SDS011;17935;51.120;13.132;2024-02-16T17:51:37;10.18;;;4.88;;
31306;SDS011;17935;51.120;13.132;2024-02-16T17:54:06;6.45;;;4.20;;
31306;SDS011;17935;51.120;13.132;2024-02-16T17:56:39;11.55;;;6.50;;
31306;SDS011;17935;51.120;13.132;2024-02-16T17:59:10;7.68;;;5.07;;
31306;SDS011;17935;51.120;13.132;2024-02-16T18:01:45;7.35;;;4.63;;
31306;SDS011;17935;51.120;13.132;2024-02-16T18:04:13;15.00;;;6.32;;
31306;SDS011;17935;51.120;13.132;2024-02-16T18:06:42;10.80;;;5.50;;
31306;SDS011;17935;51.120;13.132;2024-02-16T18:11:49;10.55;;;4.60;;
31306;SDS011;17935;51.120;13.132;2024-02-16T18:14:17;11.43;;;5.93;;
31306;SDS011;17935;51.120;13.132;2024-02-16T18:16:54;7.47;;;4.82;;
31306;SDS011;17935;51.120;13.132;2024-02-16T18:19:32;7.97;;;4.47;;
31306;SDS011;17935;51.120;13.132;2024-02-16T18:22:01;17.95;;;5.70;;
31306;SDS011;17935;51.120;13.132;2024-02-16T18:24:27;6.68;;;4.07;;
31306;SDS011;17935;51.120;13.132;2024-02-16T18:26:58;9.93;;;4.30;;
31306;SDS011;17935;51.120;13.132;2024-02-16T18:29:26;8.93;;;4.63;;
31306;SDS011;17935;51.120;13.132;2024-02-16T18:31:57;6.38;;;4.47;;
31306;SDS011;17935;51.120;13.132;2024-02-16T18:34:29;6.55;;;4.22;;
31306;SDS011;17935;51.120;13.132;2024-02-16T18:37:04;8.57;;;4.38;;
31306;SDS011;17935;51.120;13.132;2024-02-16T18:39:33;6.03;;;3.78;;
31306;SDS011;17935;51.120;13.132;2024-02-16T18:42:06;6.75;;;3.88;;
31306;SDS011;17935;51.120;13.132;2024-02-16T18:44:35;12.18;;;5.13;;
31306;SDS011;17935;51.120;13.132;2024-02-16T18:47:06;6.00;;;3.90;;
31306;SDS011;17935;51.120;13.132;2024-02-16T18:49:35;9.60;;;4.10;;
31306;SDS011;17935;51.120;13.132;2024-02-16T18:52:00;6.93;;;4.23;;
31306;SDS011;17935;51.120;13.132;2024-02-16T18:54:31;8.18;;;4.78;;
31306;SDS011;17935;51.120;13.132;2024-02-16T18:56:59;8.65;;;4.55;;
31306;SDS011;17935;51.120;13.132;2024-02-16T18:59:44;8.57;;;4.00;;
31306;SDS011;17935;51.120;13.132;2024-02-16T19:02:12;7.38;;;4.10;;
31306;SDS011;17935;51.120;13.132;2024-02-16T19:04:38;7.68;;;3.28;;
31306;SDS011;17935;51.120;13.132;2024-02-16T19:07:04;8.68;;;3.70;;
31306;SDS011;17935;51.120;13.132;2024-02-16T19:09:29;6.45;;;3.70;;
31306;SDS011;17935;51.120;13.132;2024-02-16T19:11:55;12.93;;;3.78;;
31306;SDS011;17935;51.120;13.132;2024-02-16T19:14:24;10.43;;;4.40;;
31306;SDS011;17935;51.120;13.132;2024-02-16T19:16:50;7.78;;;4.72;;
31306;SDS011;17935;51.120;13.132;2024-02-16T19:19:16;6.45;;;4.60;;
31306;SDS011;17935;51.120;13.132;2024-02-16T19:21:42;5.95;;;4.57;;
31306;SDS011;17935;51.120;13.132;2024-02-16T19:24:08;8.55;;;3.75;;
31306;SDS011;17935;51.120;13.132;2024-02-16T19:26:34;7.00;;;3.67;;
31306;SDS011;17935;51.120;13.132;2024-02-16T19:29:01;8.20;;;4.07;;
31306;SDS011;17935;51.120;13.132;2024-02-16T19:31:31;11.88;;;4.65;;
31306;SDS011;17935;51.120;13.132;2024-02-16T19:34:02;7.67;;;5.10;;
31306;SDS011;17935;51.120;13.132;2024-02-16T19:36:29;8.43;;;6.13;;
31306;SDS011;17935;51.120;13.132;2024-02-16T19:43:49;8.20;;;4.43;;
31306;SDS011;17935;51.120;13.132;2024-02-16T19:46:18;7.25;;;4.45;;
31306;SDS011;17935;51.120;13.132;2024-02-16T19:48:45;11.30;;;4.45;;
31306;SDS011;17935;51.120;13.132;2024-02-16T19:51:11;15.52;;;4.05;;
31306;SDS011;17935;51.120;13.132;2024-02-16T19:53:40;6.00;;;3.92;;
31306;SDS011;17935;51.120;13.132;2024-02-16T19:56:06;7.20;;;4.28;;
31306;SDS011;17935;51.120;13.132;2024-02-16T19:58:31;7.45;;;3.97;;
31306;SDS011;17935;51.120;13.132;2024-02-16T20:01:00;8.40;;;3.85;;
31306;SDS011;17935;51.120;13.132;2024-02-16T20:03:30;10.35;;;6.28;;
31306;SDS011;17935;51.120;13.132;2024-02-16T20:05:59;11.43;;;5.30;;
31306;SDS011;17935;51.120;13.132;2024-02-16T20:08:28;7.22;;;4.32;;
31306;SDS011;17935;51.120;13.132;2024-02-16T20:10:55;6.88;;;4.30;;
31306;SDS011;17935;51.120;13.132;2024-02-16T20:13:24;5.05;;;3.83;;
31306;SDS011;17935;51.120;13.132;2024-02-16T20:15:52;7.20;;;3.88;;
31306;SDS011;17935;51.120;13.132;2024-02-16T20:18:23;8.63;;;4.53;;
31306;SDS011;17935;51.120;13.132;2024-02-16T20:20:53;8.75;;;4.05;;
31306;SDS011;17935;51.120;13.132;2024-02-16T20:23:19;5.68;;;3.33;;
31306;SDS011;17935;51.120;13.132;2024-02-16T20:25:54;6.57;;;4.22;;
31306;SDS011;17935;51.120;13.132;2024-02-16T20:28:22;9.85;;;3.75;;
31306;SDS011;17935;51.120;13.132;2024-02-16T20:30:48;5.75;;;3.58;;
31306;SDS011;17935;51.120;13.132;2024-02-16T20:33:16;5.25;;;3.28;;
31306;SDS011;17935;51.120;13.132;2024-02-16T20:53:02;6.70;;;3.92;;
31306;SDS011;17935;51.120;13.132;2024-02-16T20:55:27;5.90;;;3.85;;
31306;SDS011;17935;51.120;13.132;2024-02-16T20:57:55;4.47;;;3.50;;
31306;SDS011;17935;51.120;13.132;2024-02-16T21:00:27;9.63;;;4.40;;
31306;SDS011;17935;51.120;13.132;2024-02-16T21:02:53;9.32;;;4.20;;
31306;SDS011;17935;51.120;13.132;2024-02-16T21:47:52;12.47;;;4.60;;
31306;SDS011;17935;51.120;13.132;2024-02-16T21:50:24;7.10;;;4.40;;
31306;SDS011;17935;51.120;13.132;2024-02-16T22:12:42;8.77;;;5.20;;
31306;SDS011;17935;51.120;13.132;2024-02-16T22:15:36;8.02;;;5.38;;
31306;SDS011;17935;51.120;13.132;2024-02-16T22:18:06;12.95;;;5.28;;
31306;SDS011;17935;51.120;13.132;2024-02-16T22:27:59;20.40;;;7.10;;
31306;SDS011;17935;51.120;13.132;2024-02-16T22:30:27;11.65;;;6.75;;
31306;SDS011;17935;51.120;13.132;2024-02-16T22:40:31;10.83;;;6.83;;
31306;SDS011;17935;51.120;13.132;2024-02-16T22:43:03;9.80;;;6.28;;
31306;SDS011;17935;51.120;13.132;2024-02-16T22:45:29;12.10;;;6.47;;
31306;SDS011;17935;51.120;13.132;2024-02-16T22:47:58;12.35;;;7.50;;
31306;SDS011;17935;51.120;13.132;2024-02-16T22:50:24;13.65;;;8.25;;
31306;SDS011;17935;51.120;13.132;2024-02-16T22:52:50;23.60;;;8.90;;
31306;SDS011;17935;51.120;13.132;2024-02-16T22:55:21;11.43;;;7.20;;
31306;SDS011;17935;51.120;13.132;2024-02-16T22:57:59;14.25;;;8.85;;
31306;SDS011;17935;51.120;13.132;2024-02-16T23:15:18;14.90;;;9.38;;
31306;SDS011;17935;51.120;13.132;2024-02-16T23:17:59;12.35;;;8.43;;
31306;SDS011;17935;51.120;13.132;2024-02-16T23:20:52;15.95;;;9.10;;
31306;SDS011;17935;51.120;13.132;2024-02-16T23:23:24;14.98;;;9.48;;
31306;SDS011;17935;51.120;13.132;2024-02-16T23:25:54;14.95;;;7.95;;
31306;SDS011;17935;51.120;13.132;2024-02-16T23:28:22;18.88;;;8.48;;
31306;SDS011;17935;51.120;13.132;2024-02-16T23:31:04;14.70;;;8.80;;
31306;SDS011;17935;51.120;13.132;2024-02-16T23:33:39;18.35;;;8.93;;
31306;SDS011;17935;51.120;13.132;2024-02-16T23:36:05;14.48;;;9.18;;
31306;SDS011;17935;51.120;13.132;2024-02-16T23:38:39;12.60;;;9.70;;
31306;SDS011;17935;51.120;13.132;2024-02-16T23:41:11;13.13;;;8.93;;
31306;SDS011;17935;51.120;13.132;2024-02-16T23:58:38;20.33;;;11.55;;
